sensor_id;sensor_type;location;lat;lon;timestamp;pressure;altitude;pressure_sealevel;temperature;humidity
31911;BME280;18457;52.432;16.914;2024-03-08T00:01:26;101393.94;;;3.12;87.39
31911;BME280;18457;52.432;16.914;2024-03-08T00:03:58;101390.34;;;3.11;87.14
31911;BME280;18457;52.432;16.914;2024-03-08T00:06:30;101392.70;;;3.04;87.87
31911;BME280;18457;52.432;16.914;2024-03-08T00:09:02;101394.98;;;3.02;88.35
31911;BME280;18457;52.432;16.914;2024-03-08T00:11:35;101389.84;;;2.96;88.41
31911;BME280;18457;52.432;16.914;2024-03-08T00:14:07;101388.65;;;2.99;88.58
31911;BME280;18457;52.432;16.914;2024-03-08T00:16:39;101388.77;;;2.89;88.90
31911;BME280;18457;52.432;16.914;2024-03-08T00:19:14;101390.39;;;2.89;89.31
31911;BME280;18457;52.432;16.914;2024-03-08T00:21:46;101386.00;;;2.92;88.87
31911;BME280;18457;52.432;16.914;2024-03-08T00:24:18;101390.44;;;2.91;87.77
31911;BME280;18457;52.432;16.914;2024-03-08T00:26:54;101385.72;;;2.96;88.10
31911;BME280;18457;52.432;16.914;2024-03-08T00:29:27;101386.58;;;2.94;87.65
31911;BME280;18457;52.432;16.914;2024-03-08T00:31:59;101388.92;;;2.88;88.30
31911;BME280;18457;52.432;16.914;2024-03-08T00:34:31;101388.92;;;2.88;87.77
31911;BME280;18457;52.432;16.914;2024-03-08T00:37:05;101387.81;;;2.78;89.29
31911;BME280;18457;52.432;16.914;2024-03-08T00:39:37;101390.02;;;2.74;89.41
31911;BME280;18457;52.432;16.914;2024-03-08T00:42:09;101387.41;;;2.68;90.27
31911;BME280;18457;52.432;16.914;2024-03-08T00:44:41;101388.77;;;2.73;90.36
31911;BME280;18457;52.432;16.914;2024-03-08T00:47:13;101389.06;;;2.78;89.55
31911;BME280;18457;52.432;16.914;2024-03-08T00:49:45;101391.75;;;2.78;90.20
31911;BME280;18457;52.432;16.914;2024-03-08T00:52:18;101386.56;;;2.78;90.65
31911;BME280;18457;52.432;16.914;2024-03-08T00:54:49;101387.21;;;2.67;91.47
31911;BME280;18457;52.432;16.914;2024-03-08T00:57:21;101388.27;;;2.67;91.59
31911;BME280;18457;52.432;16.914;2024-03-08T00:59:53;101385.63;;;2.61;91.83
31911;BME280;18457;52.432;16.914;2024-03-08T01:02:27;101377.59;;;2.60;91.21
31911;BME280;18457;52.432;16.914;2024-03-08T01:05:00;101384.15;;;2.66;90.92
31911;BME280;18457;52.432;16.914;2024-03-08T01:07:32;101377.79;;;2.69;91.34
31911;BME280;18457;52.432;16.914;2024-03-08T01:10:05;101371.55;;;2.70;90.88
31911;BME280;18457;52.432;16.914;2024-03-08T01:12:40;101372.65;;;2.71;90.50
31911;BME280;18457;52.432;16.914;2024-03-08T01:15:13;101369.84;;;2.72;90.33
31911;BME280;18457;52.432;16.914;2024-03-08T01:17:45;101369.00;;;2.74;89.97
31911;BME280;18457;52.432;16.914;2024-03-08T01:20:18;101369.90;;;2.76;89.81
31911;BME280;18457;52.432;16.914;2024-03-08T01:22:50;101366.52;;;2.76;90.00
31911;BME280;18457;52.432;16.914;2024-03-08T01:25:22;101361.59;;;2.71;90.36
31911;BME280;18457;52.432;16.914;2024-03-08T01:27:54;101364.86;;;2.66;90.53
31911;BME280;18457;52.432;16.914;2024-03-08T01:30:26;101365.50;;;2.54;91.01
31911;BME280;18457;52.432;16.914;2024-03-08T01:32:58;101363.33;;;2.45;91.44
31911;BME280;18457;52.432;16.914;2024-03-08T01:35:31;101365.55;;;2.35;92.61
31911;BME280;18457;52.432;16.914;2024-03-08T01:38:03;101357.98;;;2.32;92.60
31911;BME280;18457;52.432;16.914;2024-03-08T01:40:36;101360.50;;;2.25;93.38
31911;BME280;18457;52.432;16.914;2024-03-08T01:43:19;101359.21;;;2.24;93.53
31911;BME280;18457;52.432;16.914;2024-03-08T01:45:52;101362.43;;;2.38;92.66
31911;BME280;18457;52.432;16.914;2024-03-08T01:48:23;101360.43;;;2.44;92.63
31911;BME280;18457;52.432;16.914;2024-03-08T01:50:55;101359.09;;;2.40;92.93
31911;BME280;18457;52.432;16.914;2024-03-08T01:53:28;101355.60;;;2.43;92.31
31911;BME280;18457;52.432;16.914;2024-03-08T01:56:02;101355.10;;;2.44;92.64
31911;BME280;18457;52.432;16.914;2024-03-08T01:58:34;101350.42;;;2.43;92.48
31911;BME280;18457;52.432;16.914;2024-03-08T02:01:06;101352.29;;;2.47;92.20
31911;BME280;18457;52.432;16.914;2024-03-08T02:03:40;101345.04;;;2.49;91.72
31911;BME280;18457;52.432;16.914;2024-03-08T02:06:15;101340.24;;;2.50;91.97
31911;BME280;18457;52.432;16.914;2024-03-08T02:08:48;101342.89;;;2.48;92.39
31911;BME280;18457;52.432;16.914;2024-03-08T02:11:19;101341.90;;;2.44;92.43
31911;BME280;18457;52.432;16.914;2024-03-08T02:13:51;101337.91;;;2.42;92.57
31911;BME280;18457;52.432;16.914;2024-03-08T02:16:23;101334.16;;;2.34;92.97
31911;BME280;18457;52.432;16.914;2024-03-08T02:18:55;101330.05;;;2.26;93.01
31911;BME280;18457;52.432;16.914;2024-03-08T02:21:28;101327.42;;;2.14;94.83
31911;BME280;18457;52.432;16.914;2024-03-08T02:24:00;101322.77;;;2.06;95.60
31911;BME280;18457;52.432;16.914;2024-03-08T02:26:32;101321.52;;;2.13;94.91
31911;BME280;18457;52.432;16.914;2024-03-08T02:29:05;101323.41;;;2.17;93.91
31911;BME280;18457;52.432;16.914;2024-03-08T02:31:37;101325.95;;;2.19;93.74
31911;BME280;18457;52.432;16.914;2024-03-08T02:34:09;101320.14;;;2.22;93.21
31911;BME280;18457;52.432;16.914;2024-03-08T02:36:41;101320.77;;;2.19;94.20
31911;BME280;18457;52.432;16.914;2024-03-08T02:39:13;101318.86;;;2.14;95.30
31911;BME280;18457;52.432;16.914;2024-03-08T02:41:46;101323.48;;;2.13;95.09
31911;BME280;18457;52.432;16.914;2024-03-08T02:44:18;101322.31;;;2.02;94.56
31911;BME280;18457;52.432;16.914;2024-03-08T02:46:52;101320.06;;;2.05;94.42
31911;BME280;18457;52.432;16.914;2024-03-08T02:49:26;101319.88;;;2.11;94.15
31911;BME280;18457;52.432;16.914;2024-03-08T02:51:58;101318.88;;;2.14;94.13
31911;BME280;18457;52.432;16.914;2024-03-08T02:54:30;101318.88;;;2.07;94.31
31911;BME280;18457;52.432;16.914;2024-03-08T02:57:02;101314.52;;;2.04;94.78
31911;BME280;18457;52.432;16.914;2024-03-08T02:59:33;101315.08;;;2.05;94.51
31911;BME280;18457;52.432;16.914;2024-03-08T03:02:08;101307.98;;;1.99;94.95
31911;BME280;18457;52.432;16.914;2024-03-08T03:04:42;101305.63;;;1.97;95.18
31911;BME280;18457;52.432;16.914;2024-03-08T03:07:14;101303.66;;;1.97;94.67
31911;BME280;18457;52.432;16.914;2024-03-08T03:09:45;101304.09;;;1.93;95.01
31911;BME280;18457;52.432;16.914;2024-03-08T03:12:17;101303.32;;;1.98;94.60
31911;BME280;18457;52.432;16.914;2024-03-08T03:14:49;101300.50;;;1.85;94.74
31911;BME280;18457;52.432;16.914;2024-03-08T03:17:21;101299.77;;;1.78;95.07
31911;BME280;18457;52.432;16.914;2024-03-08T03:19:53;101297.95;;;1.82;95.53
31911;BME280;18457;52.432;16.914;2024-03-08T03:22:26;101301.97;;;1.94;94.97
31911;BME280;18457;52.432;16.914;2024-03-08T03:24:58;101305.48;;;1.99;94.45
31911;BME280;18457;52.432;16.914;2024-03-08T03:27:31;101302.21;;;2.03;94.20
31911;BME280;18457;52.432;16.914;2024-03-08T03:30:04;101307.93;;;2.04;93.88
31911;BME280;18457;52.432;16.914;2024-03-08T03:33:08;101306.80;;;2.08;94.40
31911;BME280;18457;52.432;16.914;2024-03-08T03:35:43;101313.35;;;2.00;94.44
31911;BME280;18457;52.432;16.914;2024-03-08T03:38:16;101311.79;;;1.94;94.42
31911;BME280;18457;52.432;16.914;2024-03-08T03:40:48;101314.02;;;1.78;95.35
31911;BME280;18457;52.432;16.914;2024-03-08T03:43:23;101312.22;;;1.70;95.94
31911;BME280;18457;52.432;16.914;2024-03-08T03:45:56;101312.79;;;1.64;97.42
31911;BME280;18457;52.432;16.914;2024-03-08T03:48:28;101313.13;;;1.64;97.27
31911;BME280;18457;52.432;16.914;2024-03-08T03:51:00;101310.31;;;1.59;97.45
31911;BME280;18457;52.432;16.914;2024-03-08T03:53:32;101309.91;;;1.57;98.34
31911;BME280;18457;52.432;16.914;2024-03-08T03:56:05;101307.98;;;1.52;98.33
31911;BME280;18457;52.432;16.914;2024-03-08T03:58:37;101303.59;;;1.47;98.50
31911;BME280;18457;52.432;16.914;2024-03-08T04:01:10;101301.30;;;1.54;97.62
31911;BME280;18457;52.432;16.914;2024-03-08T04:03:43;101302.45;;;1.57;97.03
31911;BME280;18457;52.432;16.914;2024-03-08T04:06:15;101303.46;;;1.62;96.58
31911;BME280;18457;52.432;16.914;2024-03-08T04:08:47;101299.81;;;1.65;96.30
31911;BME280;18457;52.432;16.914;2024-03-08T04:11:19;101297.90;;;1.67;96.72
31911;BME280;18457;52.432;16.914;2024-03-08T04:13:51;101296.10;;;1.66;96.42
31911;BME280;18457;52.432;16.914;2024-03-08T04:16:24;101294.83;;;1.66;96.29
31911;BME280;18457;52.432;16.914;2024-03-08T04:18:55;101298.02;;;1.65;96.97
31911;BME280;18457;52.432;16.914;2024-03-08T04:21:27;101294.70;;;1.61;97.15
31911;BME280;18457;52.432;16.914;2024-03-08T04:24:01;101295.89;;;1.58;96.62
31911;BME280;18457;52.432;16.914;2024-03-08T04:26:33;101290.68;;;1.57;96.77
31911;BME280;18457;52.432;16.914;2024-03-08T04:29:05;101295.31;;;1.50;96.47
31911;BME280;18457;52.432;16.914;2024-03-08T04:31:37;101293.23;;;1.45;97.11
31911;BME280;18457;52.432;16.914;2024-03-08T04:34:09;101288.38;;;1.43;97.40
31911;BME280;18457;52.432;16.914;2024-03-08T04:36:41;101284.56;;;1.41;98.09
31911;BME280;18457;52.432;16.914;2024-03-08T04:39:14;101286.90;;;1.42;97.97
31911;BME280;18457;52.432;16.914;2024-03-08T04:41:46;101284.02;;;1.40;97.44
31911;BME280;18457;52.432;16.914;2024-03-08T04:44:18;101286.70;;;1.41;97.65
31911;BME280;18457;52.432;16.914;2024-03-08T04:46:50;101283.39;;;1.37;98.20
31911;BME280;18457;52.432;16.914;2024-03-08T04:49:22;101280.87;;;1.43;97.60
31911;BME280;18457;52.432;16.914;2024-03-08T04:51:54;101284.42;;;1.42;97.60
31911;BME280;18457;52.432;16.914;2024-03-08T04:54:26;101282.58;;;1.34;98.42
31911;BME280;18457;52.432;16.914;2024-03-08T04:56:58;101287.96;;;1.29;99.23
31911;BME280;18457;52.432;16.914;2024-03-08T04:59:33;101284.25;;;1.30;98.97
31911;BME280;18457;52.432;16.914;2024-03-08T05:02:07;101280.88;;;1.30;98.37
31911;BME280;18457;52.432;16.914;2024-03-08T05:04:39;101278.55;;;1.30;99.26
31911;BME280;18457;52.432;16.914;2024-03-08T05:07:11;101280.52;;;1.30;99.14
31911;BME280;18457;52.432;16.914;2024-03-08T05:09:43;101284.27;;;1.37;98.31
31911;BME280;18457;52.432;16.914;2024-03-08T05:12:22;101284.33;;;1.33;98.38
31911;BME280;18457;52.432;16.914;2024-03-08T05:14:54;101287.89;;;1.39;97.78
31911;BME280;18457;52.432;16.914;2024-03-08T05:17:26;101286.88;;;1.28;99.02
31911;BME280;18457;52.432;16.914;2024-03-08T05:19:57;101285.91;;;1.32;98.56
31911;BME280;18457;52.432;16.914;2024-03-08T05:22:29;101286.23;;;1.31;98.44
31911;BME280;18457;52.432;16.914;2024-03-08T05:25:01;101291.75;;;1.24;98.75
31911;BME280;18457;52.432;16.914;2024-03-08T05:27:33;101285.46;;;1.22;99.06
31911;BME280;18457;52.432;16.914;2024-03-08T05:30:06;101288.23;;;1.26;99.05
31911;BME280;18457;52.432;16.914;2024-03-08T05:32:44;101281.02;;;1.29;98.51
31911;BME280;18457;52.432;16.914;2024-03-08T05:35:16;101284.80;;;1.37;98.19
31911;BME280;18457;52.432;16.914;2024-03-08T05:37:48;101288.45;;;1.40;97.74
31911;BME280;18457;52.432;16.914;2024-03-08T05:40:20;101286.61;;;1.44;97.67
31911;BME280;18457;52.432;16.914;2024-03-08T05:42:53;101284.79;;;1.42;98.03
31911;BME280;18457;52.432;16.914;2024-03-08T05:45:26;101287.54;;;1.33;99.01
31911;BME280;18457;52.432;16.914;2024-03-08T05:47:58;101283.09;;;1.33;98.85
31911;BME280;18457;52.432;16.914;2024-03-08T05:50:30;101289.23;;;1.36;98.80
31911;BME280;18457;52.432;16.914;2024-03-08T05:53:02;101287.35;;;1.39;98.26
31911;BME280;18457;52.432;16.914;2024-03-08T05:55:37;101287.64;;;1.43;98.60
31911;BME280;18457;52.432;16.914;2024-03-08T05:58:08;101286.59;;;1.44;97.96
31911;BME280;18457;52.432;16.914;2024-03-08T06:00:42;101285.04;;;1.45;98.03
31911;BME280;18457;52.432;16.914;2024-03-08T06:03:13;101287.41;;;1.41;98.80
31911;BME280;18457;52.432;16.914;2024-03-08T06:05:49;101289.70;;;1.40;99.08
31911;BME280;18457;52.432;16.914;2024-03-08T06:08:19;101290.19;;;1.45;98.03
31911;BME280;18457;52.432;16.914;2024-03-08T06:10:51;101297.79;;;1.49;98.07
31911;BME280;18457;52.432;16.914;2024-03-08T06:13:23;101298.73;;;1.51;97.82
31911;BME280;18457;52.432;16.914;2024-03-08T06:15:59;101295.09;;;1.55;97.96
31911;BME280;18457;52.432;16.914;2024-03-08T06:18:35;101302.11;;;1.58;98.53
31911;BME280;18457;52.432;16.914;2024-03-08T06:21:11;101298.41;;;1.60;98.33
31911;BME280;18457;52.432;16.914;2024-03-08T06:23:43;101298.27;;;1.61;98.36
31911;BME280;18457;52.432;16.914;2024-03-08T06:26:15;101298.07;;;1.61;98.56
31911;BME280;18457;52.432;16.914;2024-03-08T06:28:48;101299.73;;;1.69;98.31
31911;BME280;18457;52.432;16.914;2024-03-08T06:31:21;101295.46;;;1.76;97.64
31911;BME280;18457;52.432;16.914;2024-03-08T06:33:54;101297.68;;;1.79;97.17
31911;BME280;18457;52.432;16.914;2024-03-08T06:36:27;101295.33;;;1.78;98.20
31911;BME280;18457;52.432;16.914;2024-03-08T06:38:59;101291.79;;;1.79;98.43
31911;BME280;18457;52.432;16.914;2024-03-08T06:41:31;101293.29;;;1.82;97.85
31911;BME280;18457;52.432;16.914;2024-03-08T06:44:07;101292.02;;;1.74;97.51
31911;BME280;18457;52.432;16.914;2024-03-08T06:46:40;101288.70;;;1.75;97.35
31911;BME280;18457;52.432;16.914;2024-03-08T06:49:12;101290.59;;;1.87;96.99
31911;BME280;18457;52.432;16.914;2024-03-08T06:51:44;101296.02;;;1.98;96.46
31911;BME280;18457;52.432;16.914;2024-03-08T06:54:16;101295.82;;;2.04;96.59
31911;BME280;18457;52.432;16.914;2024-03-08T06:56:48;101296.30;;;2.16;95.63
31911;BME280;18457;52.432;16.914;2024-03-08T06:59:20;101295.98;;;2.18;95.69
31911;BME280;18457;52.432;16.914;2024-03-08T07:01:52;101298.30;;;2.18;94.78
31911;BME280;18457;52.432;16.914;2024-03-08T07:04:27;101296.02;;;2.27;93.53
31911;BME280;18457;52.432;16.914;2024-03-08T07:07:00;101290.56;;;2.30;94.77
31911;BME280;18457;52.432;16.914;2024-03-08T07:09:31;101290.75;;;2.38;93.52
31911;BME280;18457;52.432;16.914;2024-03-08T07:12:04;101288.23;;;2.44;93.43
31911;BME280;18457;52.432;16.914;2024-03-08T07:14:38;101289.80;;;2.51;93.16
31911;BME280;18457;52.432;16.914;2024-03-08T07:17:11;101289.63;;;2.59;92.13
31911;BME280;18457;52.432;16.914;2024-03-08T07:19:43;101290.42;;;2.63;92.13
31911;BME280;18457;52.432;16.914;2024-03-08T07:22:15;101288.49;;;2.63;92.96
31911;BME280;18457;52.432;16.914;2024-03-08T07:24:47;101289.08;;;2.67;92.02
31911;BME280;18457;52.432;16.914;2024-03-08T07:27:35;101290.21;;;2.77;91.82
31911;BME280;18457;52.432;16.914;2024-03-08T07:30:09;101294.49;;;2.86;91.02
31911;BME280;18457;52.432;16.914;2024-03-08T07:32:41;101296.06;;;2.93;90.31
31911;BME280;18457;52.432;16.914;2024-03-08T07:35:14;101290.91;;;3.01;89.18
31911;BME280;18457;52.432;16.914;2024-03-08T07:37:49;101291.74;;;3.07;89.38
31911;BME280;18457;52.432;16.914;2024-03-08T07:40:22;101282.64;;;3.08;89.46
31911;BME280;18457;52.432;16.914;2024-03-08T07:42:54;101289.19;;;3.13;88.69
31911;BME280;18457;52.432;16.914;2024-03-08T07:45:25;101286.98;;;3.19;86.99
31911;BME280;18457;52.432;16.914;2024-03-08T07:47:58;101287.16;;;3.28;86.91
31911;BME280;18457;52.432;16.914;2024-03-08T07:50:30;101285.64;;;3.32;87.02
31911;BME280;18457;52.432;16.914;2024-03-08T07:53:04;101281.64;;;3.29;87.31
31911;BME280;18457;52.432;16.914;2024-03-08T07:55:37;101278.95;;;3.28;86.79
31911;BME280;18457;52.432;16.914;2024-03-08T07:58:10;101275.41;;;3.30;86.59
31911;BME280;18457;52.432;16.914;2024-03-08T08:00:44;101279.25;;;3.34;86.39
31911;BME280;18457;52.432;16.914;2024-03-08T08:03:16;101276.04;;;3.44;85.12
31911;BME280;18457;52.432;16.914;2024-03-08T08:05:52;101276.59;;;3.54;85.17
31911;BME280;18457;52.432;16.914;2024-03-08T08:08:24;101273.33;;;3.62;85.04
31911;BME280;18457;52.432;16.914;2024-03-08T08:10:57;101273.83;;;3.69;84.21
31911;BME280;18457;52.432;16.914;2024-03-08T08:13:29;101274.31;;;3.76;83.95
31911;BME280;18457;52.432;16.914;2024-03-08T08:16:04;101277.58;;;3.80;83.31
31911;BME280;18457;52.432;16.914;2024-03-08T08:18:37;101277.65;;;3.84;83.08
31911;BME280;18457;52.432;16.914;2024-03-08T08:21:09;101277.04;;;3.89;83.28
31911;BME280;18457;52.432;16.914;2024-03-08T08:23:41;101279.45;;;3.96;83.21
31911;BME280;18457;52.432;16.914;2024-03-08T08:26:13;101274.06;;;4.05;82.55
31911;BME280;18457;52.432;16.914;2024-03-08T08:28:45;101279.88;;;4.10;81.78
31911;BME280;18457;52.432;16.914;2024-03-08T08:31:17;101274.64;;;4.18;81.69
31911;BME280;18457;52.432;16.914;2024-03-08T08:33:50;101272.60;;;4.24;81.87
31911;BME280;18457;52.432;16.914;2024-03-08T08:36:26;101267.34;;;4.31;81.57
31911;BME280;18457;52.432;16.914;2024-03-08T08:39:00;101270.08;;;4.35;80.81
31911;BME280;18457;52.432;16.914;2024-03-08T08:41:34;101267.30;;;4.40;81.15
31911;BME280;18457;52.432;16.914;2024-03-08T08:44:07;101268.86;;;4.49;80.16
31911;BME280;18457;52.432;16.914;2024-03-08T08:46:46;101266.04;;;4.52;78.36
31911;BME280;18457;52.432;16.914;2024-03-08T08:49:19;101262.96;;;4.63;78.48
31911;BME280;18457;52.432;16.914;2024-03-08T08:51:52;101263.98;;;4.87;82.00
31911;BME280;18457;52.432;16.914;2024-03-08T08:54:28;101259.73;;;5.17;87.03
31911;BME280;18457;52.432;16.914;2024-03-08T08:57:02;101261.41;;;5.08;77.61
31911;BME280;18457;52.432;16.914;2024-03-08T08:59:38;101256.91;;;5.06;76.45
31911;BME280;18457;52.432;16.914;2024-03-08T09:02:10;101258.38;;;5.09;74.77
31911;BME280;18457;52.432;16.914;2024-03-08T09:04:47;101255.85;;;5.08;74.70
31911;BME280;18457;52.432;16.914;2024-03-08T09:07:19;101251.27;;;5.13;74.75
31911;BME280;18457;52.432;16.914;2024-03-08T09:09:52;101256.67;;;5.17;74.10
31911;BME280;18457;52.432;16.914;2024-03-08T09:12:27;101250.42;;;5.21;73.02
31911;BME280;18457;52.432;16.914;2024-03-08T09:15:00;101249.73;;;5.21;72.78
31911;BME280;18457;52.432;16.914;2024-03-08T09:17:32;101248.56;;;5.29;72.76
31911;BME280;18457;52.432;16.914;2024-03-08T09:20:05;101247.23;;;5.37;72.97
31911;BME280;18457;52.432;16.914;2024-03-08T09:22:38;101241.33;;;5.38;72.03
31911;BME280;18457;52.432;16.914;2024-03-08T09:25:11;101244.23;;;5.43;71.40
31911;BME280;18457;52.432;16.914;2024-03-08T09:27:43;101244.08;;;5.44;70.39
31911;BME280;18457;52.432;16.914;2024-03-08T09:30:17;101239.63;;;5.47;70.86
31911;BME280;18457;52.432;16.914;2024-03-08T09:32:49;101235.58;;;5.55;71.68
31911;BME280;18457;52.432;16.914;2024-03-08T09:35:22;101233.52;;;5.64;71.16
31911;BME280;18457;52.432;16.914;2024-03-08T09:37:55;101229.48;;;5.74;70.15
31911;BME280;18457;52.432;16.914;2024-03-08T09:40:27;101229.44;;;5.86;69.76
31911;BME280;18457;52.432;16.914;2024-03-08T09:42:59;101229.70;;;5.95;69.01
31911;BME280;18457;52.432;16.914;2024-03-08T09:45:33;101226.99;;;5.95;67.59
31911;BME280;18457;52.432;16.914;2024-03-08T09:48:11;101225.11;;;6.04;67.20
31911;BME280;18457;52.432;16.914;2024-03-08T09:50:45;101225.86;;;6.11;66.83
31911;BME280;18457;52.432;16.914;2024-03-08T09:53:17;101221.24;;;6.16;67.56
31911;BME280;18457;52.432;16.914;2024-03-08T09:55:49;101218.63;;;6.27;68.78
31911;BME280;18457;52.432;16.914;2024-03-08T09:58:22;101216.73;;;6.40;67.29
31911;BME280;18457;52.432;16.914;2024-03-08T10:01:09;101213.16;;;6.46;65.35
31911;BME280;18457;52.432;16.914;2024-03-08T10:03:42;101212.16;;;6.59;64.97
31911;BME280;18457;52.432;16.914;2024-03-08T10:06:14;101214.02;;;6.72;64.75
31911;BME280;18457;52.432;16.914;2024-03-08T10:08:46;101208.01;;;6.91;65.31
31911;BME280;18457;52.432;16.914;2024-03-08T10:11:18;101205.34;;;7.00;64.24
31911;BME280;18457;52.432;16.914;2024-03-08T10:13:51;101202.86;;;7.09;62.68
31911;BME280;18457;52.432;16.914;2024-03-08T10:16:23;101203.03;;;7.12;60.80
31911;BME280;18457;52.432;16.914;2024-03-08T10:18:55;101199.64;;;7.18;60.47
31911;BME280;18457;52.432;16.914;2024-03-08T10:21:27;101197.33;;;7.28;60.54
31911;BME280;18457;52.432;16.914;2024-03-08T10:24:03;101198.79;;;7.41;59.90
31911;BME280;18457;52.432;16.914;2024-03-08T10:26:35;101195.04;;;7.59;59.30
31911;BME280;18457;52.432;16.914;2024-03-08T10:29:08;101194.50;;;7.67;60.19
31911;BME280;18457;52.432;16.914;2024-03-08T10:31:40;101193.96;;;7.85;60.35
31911;BME280;18457;52.432;16.914;2024-03-08T10:34:14;101197.36;;;8.02;59.34
31911;BME280;18457;52.432;16.914;2024-03-08T10:36:46;101192.49;;;8.17;58.38
31911;BME280;18457;52.432;16.914;2024-03-08T10:39:26;101193.21;;;8.19;55.85
31911;BME280;18457;52.432;16.914;2024-03-08T10:42:04;101191.77;;;8.26;56.26
31911;BME280;18457;52.432;16.914;2024-03-08T10:44:57;101191.95;;;8.32;56.04
31911;BME280;18457;52.432;16.914;2024-03-08T10:47:31;101191.93;;;8.41;55.78
31911;BME280;18457;52.432;16.914;2024-03-08T10:50:16;101190.83;;;8.51;56.02
31911;BME280;18457;52.432;16.914;2024-03-08T10:52:52;101190.80;;;8.57;57.40
31911;BME280;18457;52.432;16.914;2024-03-08T10:55:27;101186.23;;;8.73;57.07
31911;BME280;18457;52.432;16.914;2024-03-08T10:57:59;101181.86;;;8.87;56.91
31911;BME280;18457;52.432;16.914;2024-03-08T11:00:31;101178.77;;;8.91;56.99
31911;BME280;18457;52.432;16.914;2024-03-08T11:03:03;101168.15;;;8.93;57.17
31911;BME280;18457;52.432;16.914;2024-03-08T11:05:36;101170.30;;;8.94;57.17
31911;BME280;18457;52.432;16.914;2024-03-08T11:08:20;101173.66;;;9.06;57.09
31911;BME280;18457;52.432;16.914;2024-03-08T11:10:53;101172.16;;;9.14;56.55
31911;BME280;18457;52.432;16.914;2024-03-08T11:13:36;101168.84;;;9.25;56.15
31911;BME280;18457;52.432;16.914;2024-03-08T11:16:12;101161.35;;;9.40;55.37
31911;BME280;18457;52.432;16.914;2024-03-08T11:18:49;101157.92;;;9.41;55.05
31911;BME280;18457;52.432;16.914;2024-03-08T11:21:23;101159.48;;;9.47;54.89
31911;BME280;18457;52.432;16.914;2024-03-08T11:24:02;101153.70;;;9.50;57.05
31911;BME280;18457;52.432;16.914;2024-03-08T11:26:36;101151.34;;;9.53;54.82
31911;BME280;18457;52.432;16.914;2024-03-08T11:29:41;101147.84;;;9.61;54.55
31911;BME280;18457;52.432;16.914;2024-03-08T11:32:16;101150.98;;;9.74;55.39
31911;BME280;18457;52.432;16.914;2024-03-08T11:34:49;101143.06;;;9.90;54.54
31911;BME280;18457;52.432;16.914;2024-03-08T11:37:22;101141.75;;;9.98;54.02
31911;BME280;18457;52.432;16.914;2024-03-08T11:39:53;101137.00;;;10.01;54.71
31911;BME280;18457;52.432;16.914;2024-03-08T11:42:29;101140.06;;;10.03;53.88
31911;BME280;18457;52.432;16.914;2024-03-08T11:45:01;101135.42;;;9.97;52.62
31911;BME280;18457;52.432;16.914;2024-03-08T11:47:44;101127.19;;;9.91;51.34
31911;BME280;18457;52.432;16.914;2024-03-08T11:50:18;101127.54;;;9.92;50.85
31911;BME280;18457;52.432;16.914;2024-03-08T11:52:59;101127.09;;;10.01;51.78
31911;BME280;18457;52.432;16.914;2024-03-08T11:55:32;101126.70;;;10.05;52.51
31911;BME280;18457;52.432;16.914;2024-03-08T11:58:07;101125.79;;;10.06;51.36
31911;BME280;18457;52.432;16.914;2024-03-08T12:00:41;101123.98;;;10.06;51.66
31911;BME280;18457;52.432;16.914;2024-03-08T12:03:13;101120.11;;;10.14;50.89
31911;BME280;18457;52.432;16.914;2024-03-08T12:05:45;101119.86;;;10.21;50.10
31911;BME280;18457;52.432;16.914;2024-03-08T12:08:17;101121.89;;;10.18;49.34
31911;BME280;18457;52.432;16.914;2024-03-08T12:10:49;101113.86;;;10.25;50.87
31911;BME280;18457;52.432;16.914;2024-03-08T12:13:22;101118.88;;;10.28;50.34
31911;BME280;18457;52.432;16.914;2024-03-08T12:15:54;101118.08;;;10.35;49.63
31911;BME280;18457;52.432;16.914;2024-03-08T12:18:26;101111.39;;;10.36;49.41
31911;BME280;18457;52.432;16.914;2024-03-08T12:21:08;101109.64;;;10.46;48.56
31911;BME280;18457;52.432;16.914;2024-03-08T12:23:41;101102.70;;;10.52;49.09
31911;BME280;18457;52.432;16.914;2024-03-08T12:26:16;101102.16;;;10.52;49.76
31911;BME280;18457;52.432;16.914;2024-03-08T12:28:48;101097.85;;;10.64;49.54
31911;BME280;18457;52.432;16.914;2024-03-08T12:31:20;101089.65;;;10.55;49.10
31911;BME280;18457;52.432;16.914;2024-03-08T12:33:52;101085.29;;;10.57;49.68
31911;BME280;18457;52.432;16.914;2024-03-08T12:36:27;101085.64;;;10.58;49.28
31911;BME280;18457;52.432;16.914;2024-03-08T12:39:00;101083.05;;;10.62;49.58
31911;BME280;18457;52.432;16.914;2024-03-08T12:41:32;101079.35;;;10.55;50.70
31911;BME280;18457;52.432;16.914;2024-03-08T12:44:05;101076.87;;;10.51;50.81
31911;BME280;18457;52.432;16.914;2024-03-08T12:46:38;101071.46;;;10.64;50.54
31911;BME280;18457;52.432;16.914;2024-03-08T12:49:12;101070.41;;;10.75;50.94
31911;BME280;18457;52.432;16.914;2024-03-08T12:51:47;101069.59;;;10.82;50.76
31911;BME280;18457;52.432;16.914;2024-03-08T12:54:20;101066.77;;;10.64;49.84
31911;BME280;18457;52.432;16.914;2024-03-08T12:56:54;101062.98;;;10.50;49.17
31911;BME280;18457;52.432;16.914;2024-03-08T12:59:26;101060.96;;;10.53;50.89
31911;BME280;18457;52.432;16.914;2024-03-08T13:01:58;101056.64;;;10.64;50.83
31911;BME280;18457;52.432;16.914;2024-03-08T13:04:31;101054.88;;;10.74;50.79
31911;BME280;18457;52.432;16.914;2024-03-08T13:07:03;101054.27;;;10.67;50.28
31911;BME280;18457;52.432;16.914;2024-03-08T13:09:35;101052.33;;;10.76;50.42
31911;BME280;18457;52.432;16.914;2024-03-08T13:12:08;101048.50;;;10.65;47.66
31911;BME280;18457;52.432;16.914;2024-03-08T13:14:43;101037.18;;;10.60;47.87
31911;BME280;18457;52.432;16.914;2024-03-08T13:17:16;101037.89;;;10.62;48.97
31911;BME280;18457;52.432;16.914;2024-03-08T13:19:49;101036.16;;;10.69;49.81